Time;durP1;ratioP1;P1;durP2;ratioP2;P2;SDS_P1;SDS_P2;PMS_P1;PMS_P2;Temp;Humidity;BMP_temperature;BMP_pressure;BME280_temperature;BME280_humidity;BME280_pressure;Samples;Min_cycle;Max_cycle;Signal;HPM_P1;HPM_P2
2023/01/27 00:00:18;;;;;;;10.88;7.20;;;;;;;3.40;100.00;99138.56;4980730;28;20035;-62
2023/01/27 00:02:45;;;;;;;10.52;6.63;;;;;;;3.42;100.00;99141.88;4980458;28;20046;-63
2023/01/27 00:05:12;;;;;;;11.07;6.45;;;;;;;3.42;100.00;99154.94;4980820;28;20117;-63
2023/01/27 00:07:37;;;;;;;12.77;7.63;;;;;;;3.46;100.00;99159.78;4982193;28;20322;-63
2023/01/27 00:10:04;;;;;;;13.23;8.52;;;;;;;3.54;100.00;99161.75;4982675;28;20105;-62
2023/01/27 00:15:14;;;;;;;;;;;;;;;3.56;100.00;99166.84;4981379;28;20049;-63
2023/01/27 00:17:40;;;;;;;18.70;8.90;;;;;;;3.42;100.00;99175.88;4980946;28;19922;-63
2023/01/27 00:20:07;;;;;;;15.30;8.85;;;;;;;3.34;100.00;99170.47;4981654;28;20249;-61
2023/01/27 00:25:17;;;;;;;14.05;7.57;;;;;;;3.24;100.00;99161.75;4979905;28;20045;-62
2023/01/27 00:27:42;;;;;;;12.45;7.85;;;;;;;3.26;100.00;99147.56;4981157;28;20050;-64
2023/01/27 00:30:09;;;;;;;11.27;6.88;;;;;;;3.33;100.00;99155.72;4980889;28;20074;-62
2023/01/27 00:35:18;;;;;;;12.30;7.13;;;;;;;3.25;100.00;99132.84;4980192;28;20049;-63
2023/01/27 00:37:45;;;;;;;12.27;6.75;;;;;;;3.29;100.00;99129.00;4980862;28;20051;-64
2023/01/27 00:40:15;;;;;;;12.65;7.15;;;;;;;3.29;100.00;99129.00;4979427;28;20057;-61
2023/01/27 00:42:40;;;;;;;16.20;8.35;;;;;;;3.40;100.00;99135.94;4978274;28;20045;-62
2023/01/27 00:47:51;;;;;;;15.02;7.45;;;;;;;3.39;100.00;99127.25;4981419;28;20037;-64
2023/01/27 00:50:17;;;;;;;11.75;7.25;;;;;;;3.50;100.00;99144.66;4980196;28;20045;-63
2023/01/27 00:52:44;;;;;;;18.00;8.25;;;;;;;3.58;100.00;99149.22;4980036;28;20042;-62
2023/01/27 00:55:10;;;;;;;17.70;8.15;;;;;;;3.59;100.00;99145.66;4981024;28;20042;-62
2023/01/27 00:57:36;;;;;;;14.25;8.05;;;;;;;3.72;100.00;99143.63;4981418;28;20556;-62
2023/01/27 01:00:03;;;;;;;16.48;8.35;;;;;;;3.78;100.00;99137.84;4980050;28;20065;-64
2023/01/27 01:02:29;;;;;;;18.48;8.65;;;;;;;3.89;100.00;99132.50;4980037;28;20105;-63
2023/01/27 01:04:54;;;;;;;13.57;7.68;;;;;;;3.89;100.00;99113.34;4979814;28;20047;-62
2023/01/27 01:07:19;;;;;;;16.15;7.75;;;;;;;3.91;100.00;99082.59;4979738;28;20045;-62
2023/01/27 01:09:45;;;;;;;16.48;8.50;;;;;;;4.04;100.00;99076.13;4980727;28;20046;-64
2023/01/27 01:12:10;;;;;;;14.70;7.72;;;;;;;3.98;100.00;99063.59;4980079;28;20390;-62
2023/01/27 01:14:36;;;;;;;12.35;7.05;;;;;;;3.72;100.00;99046.75;4980091;28;20035;-62
2023/01/27 01:17:01;;;;;;;14.05;7.40;;;;;;;3.73;100.00;99057.09;4979515;28;20232;-62
2023/01/27 01:19:29;;;;;;;15.73;7.65;;;;;;;3.72;100.00;99065.91;4979705;28;20301;-62
2023/01/27 01:21:54;;;;;;;15.07;8.57;;;;;;;3.71;100.00;99095.66;4981265;28;20046;-64
2023/01/27 01:24:20;;;;;;;15.07;7.68;;;;;;;3.69;100.00;99094.97;4978975;28;20042;-64
2023/01/27 01:26:45;;;;;;;17.88;9.20;;;;;;;3.74;100.00;99081.47;4979641;28;20035;-62
2023/01/27 01:29:11;;;;;;;18.27;10.18;;;;;;;3.72;100.00;99114.81;4980088;28;20053;-63
2023/01/27 01:31:36;;;;;;;18.05;9.55;;;;;;;3.61;100.00;99136.69;4980548;28;20345;-65
2023/01/27 01:34:01;;;;;;;19.02;9.00;;;;;;;3.58;100.00;99138.75;4980679;28;20244;-64
2023/01/27 01:36:27;;;;;;;13.20;8.02;;;;;;;3.59;100.00;99140.41;4979948;28;20236;-63
2023/01/27 01:38:56;;;;;;;15.80;7.80;;;;;;;3.62;100.00;99143.59;4977677;28;20042;-62
2023/01/27 01:41:22;;;;;;;18.83;8.40;;;;;;;3.71;100.00;99128.88;4979392;28;20038;-62
2023/01/27 01:43:49;;;;;;;17.17;7.57;;;;;;;3.79;100.00;99102.84;4977700;28;20039;-64
2023/01/27 01:46:15;;;;;;;14.93;7.60;;;;;;;3.88;100.00;99088.94;4979076;28;20042;-64
2023/01/27 01:48:51;;;;;;;14.45;7.75;;;;;;;3.86;100.00;99077.78;4980042;28;20397;-62
2023/01/27 01:51:24;;;;;;;19.27;8.70;;;;;;;3.84;100.00;99084.94;4980219;28;20070;-62
2023/01/27 01:54:08;;;;;;;20.17;10.63;;;;;;;3.78;100.00;99069.78;4979703;28;20101;-65
2023/01/27 01:56:44;;;;;;;20.85;11.75;;;;;;;3.73;100.00;99064.09;4980622;28;20035;-64
2023/01/27 01:59:54;;;;;;;17.35;8.50;;;;;;;3.66;100.00;99058.59;4979230;28;20110;-62
2023/01/27 02:02:22;;;;;;;15.88;8.60;;;;;;;3.66;100.00;99058.59;4977748;28;20047;-62
2023/01/27 02:05:10;;;;;;;18.58;10.10;;;;;;;3.62;100.00;99045.91;4978627;28;20050;-64
2023/01/27 02:07:58;;;;;;;18.75;8.63;;;;;;;3.62;100.00;99045.91;4979296;28;20053;-63
2023/01/27 02:10:25;;;;;;;16.52;8.70;;;;;;;3.64;100.00;99057.06;4980003;28;20055;-62
2023/01/27 02:12:50;;;;;;;14.93;8.18;;;;;;;3.72;100.00;99070.31;4979668;28;20048;-64
2023/01/27 02:15:16;;;;;;;15.02;7.68;;;;;;;3.71;100.00;99047.72;4979280;28;20318;-65
2023/01/27 02:17:42;;;;;;;16.70;7.68;;;;;;;3.72;100.00;99044.13;4980068;28;20227;-62
2023/01/27 02:20:20;;;;;;;15.00;7.38;;;;;;;3.69;100.00;99045.22;4980124;28;20042;-63
2023/01/27 02:23:06;;;;;;;14.48;8.02;;;;;;;3.66;100.00;99050.72;4979944;28;20110;-64
2023/01/27 02:25:35;;;;;;;14.50;7.28;;;;;;;3.65;100.00;99037.78;4979302;28;20399;-64
2023/01/27 02:28:06;;;;;;;19.10;8.55;;;;;;;3.74;100.00;99024.69;4978785;28;20038;-62
2023/01/27 02:30:32;;;;;;;15.82;8.25;;;;;;;3.84;100.00;99006.38;4977548;28;20038;-63
2023/01/27 02:32:58;;;;;;;12.05;7.07;;;;;;;3.94;100.00;99001.97;4978571;28;20034;-62
2023/01/27 02:35:29;;;;;;;12.05;7.75;;;;;;;3.93;100.00;98992.44;4979213;28;20251;-63
2023/01/27 02:37:56;;;;;;;12.70;7.05;;;;;;;3.88;100.00;98997.28;4979025;28;20038;-64
2023/01/27 02:40:23;;;;;;;12.27;6.90;;;;;;;3.83;100.00;99021.25;4978800;28;20039;-64
2023/01/27 02:42:49;;;;;;;11.82;7.13;;;;;;;3.83;100.00;99039.59;4978964;28;20066;-62
2023/01/27 02:45:15;;;;;;;11.50;7.22;;;;;;;3.90;100.00;99028.56;4984279;28;20046;-62
2023/01/27 02:47:40;;;;;;;17.60;7.25;;;;;;;3.90;100.00;99015.47;4982643;28;20038;-64
2023/01/27 02:50:06;;;;;;;10.73;6.50;;;;;;;3.88;100.00;99017.41;4983406;28;20041;-65
2023/01/27 02:52:32;;;;;;;10.70;6.68;;;;;;;3.81;100.00;99023.19;4982729;28;20031;-62
2023/01/27 02:54:57;;;;;;;13.38;6.88;;;;;;;3.81;100.00;99032.84;4982293;28;20348;-62
2023/01/27 02:57:22;;;;;;;12.75;7.00;;;;;;;3.85;100.00;99027.19;4982288;28;20325;-62
2023/01/27 02:59:48;;;;;;;11.82;6.18;;;;;;;3.97;100.00;99022.63;4983161;28;20263;-62
2023/01/27 03:02:21;;;;;;;12.68;6.43;;;;;;;3.98;100.00;99021.69;4983015;28;20243;-64
2023/01/27 03:04:47;;;;;;;11.33;6.63;;;;;;;3.89;100.00;99008.59;4982248;28;20222;-62
2023/01/27 03:07:13;;;;;;;10.48;5.85;;;;;;;3.89;100.00;98993.69;4983177;28;20556;-62
2023/01/27 03:09:38;;;;;;;10.27;5.78;;;;;;;3.95;100.00;98997.56;4982622;28;20042;-63
2023/01/27 03:12:19;;;;;;;10.63;5.60;;;;;;;3.97;100.00;98998.25;4983116;28;20038;-64
2023/01/27 03:20:12;;;;;;;11.82;5.57;;;;;;;4.05;100.00;98986.09;4982565;28;20000;-64
2023/01/27 03:22:38;;;;;;;11.20;6.35;;;;;;;4.04;100.00;98996.72;4979923;28;20098;-63
2023/01/27 03:25:04;;;;;;;9.50;6.15;;;;;;;4.00;100.00;99001.41;4980234;28;20046;-65
2023/01/27 03:27:29;;;;;;;10.05;5.82;;;;;;;4.07;100.00;99013.00;4981159;28;20030;-61
2023/01/27 03:29:55;;;;;;;14.05;7.40;;;;;;;4.12;100.00;99025.69;4982620;28;20046;-63
2023/01/27 03:32:25;;;;;;;16.33;10.13;;;;;;;4.14;100.00;99015.88;4982637;28;20352;-63
2023/01/27 03:34:51;;;;;;;12.18;7.43;;;;;;;4.09;100.00;99013.69;4982542;28;20061;-63
2023/01/27 03:48:17;;;;;;;8.73;6.28;;;;;;;4.38;100.00;99007.59;4982259;28;20374;-62
2023/01/27 03:50:43;;;;;;;12.63;6.45;;;;;;;4.41;100.00;99007.31;4981468;28;20200;-62
2023/01/27 03:53:09;;;;;;;9.63;6.10;;;;;;;4.43;100.00;99021.13;4982582;28;20046;-62
2023/01/27 03:55:36;;;;;;;11.05;5.80;;;;;;;4.47;100.00;99027.72;4980967;28;20043;-64
2023/01/27 03:58:18;;;;;;;8.80;5.75;;;;;;;4.60;100.00;99035.28;4982016;28;20085;-62
2023/01/27 04:00:52;;;;;;;12.57;7.22;;;;;;;4.68;100.00;99036.25;4981381;28;20073;-62
2023/01/27 04:08:48;;;;;;;11.10;6.20;;;;;;;4.67;100.00;98994.44;4980675;28;20045;-62
2023/01/27 04:14:02;;;;;;;10.45;6.07;;;;;;;4.66;100.00;98980.50;4982391;28;20077;-64
2023/01/27 04:16:29;;;;;;;11.18;5.47;;;;;;;4.70;100.00;98981.03;4982102;28;20242;-62
2023/01/27 04:18:55;;;;;;;9.35;5.70;;;;;;;4.71;100.00;98973.03;4981787;28;20042;-62
2023/01/27 04:21:20;;;;;;;8.35;5.05;;;;;;;4.66;100.00;98975.25;4981368;28;20046;-63
2023/01/27 04:23:46;;;;;;;8.95;5.00;;;;;;;4.61;100.00;98981.88;4979959;28;20042;-62
2023/01/27 04:26:12;;;;;;;8.05;5.20;;;;;;;4.52;100.00;98990.59;4981341;28;20103;-62
2023/01/27 04:28:37;;;;;;;10.10;6.03;;;;;;;4.51;100.00;98999.44;4981291;28;20054;-64
2023/01/27 04:31:02;;;;;;;10.00;6.32;;;;;;;4.59;100.00;98994.31;4980612;28;20224;-63
2023/01/27 04:33:28;;;;;;;13.20;6.88;;;;;;;4.68;100.00;98986.41;4980177;28;20040;-62
2023/01/27 04:35:54;;;;;;;11.00;6.57;;;;;;;4.65;100.00;98970.16;4980356;28;20035;-62
2023/01/27 04:38:20;;;;;;;11.55;6.97;;;;;;;4.67;100.00;98976.91;4979065;28;20055;-64
2023/01/27 04:40:45;;;;;;;12.15;7.45;;;;;;;4.68;100.00;98975.94;4979815;28;20039;-63
2023/01/27 04:43:11;;;;;;;12.90;7.70;;;;;;;4.65;100.00;98967.53;4980262;28;20407;-62
2023/01/27 04:45:36;;;;;;;9.73;7.25;;;;;;;4.61;100.00;98969.59;4979874;28;20047;-62
2023/01/27 04:48:02;;;;;;;11.05;6.90;;;;;;;4.64;100.00;98971.94;4980492;28;20247;-64
2023/01/27 04:50:27;;;;;;;10.93;7.80;;;;;;;4.70;100.00;98973.16;4980056;28;20051;-61
2023/01/27 04:52:52;;;;;;;9.80;7.20;;;;;;;4.79;100.00;98964.44;4979749;28;20321;-62
2023/01/27 04:55:18;;;;;;;9.60;6.53;;;;;;;4.82;100.00;98964.16;4979508;28;20035;-61
2023/01/27 04:57:43;;;;;;;10.63;6.35;;;;;;;4.76;100.00;98967.34;4980372;28;20065;-63
2023/01/27 05:00:11;;;;;;;11.15;5.82;;;;;;;4.74;100.00;98972.72;4980573;28;20278;-64
2023/01/27 05:02:37;;;;;;;9.43;6.13;;;;;;;4.68;100.00;98968.06;4980657;28;20039;-64
2023/01/27 05:05:05;;;;;;;9.35;6.25;;;;;;;4.71;100.00;98965.16;4980866;28;20043;-62
2023/01/27 05:07:31;;;;;;;14.60;7.65;;;;;;;4.65;100.00;98965.72;4977823;28;20035;-62
2023/01/27 05:09:56;;;;;;;12.95;7.78;;;;;;;4.62;100.00;98975.69;4978506;28;20047;-64
2023/01/27 05:12:21;;;;;;;11.75;6.78;;;;;;;4.59;100.00;98982.03;4982397;28;20041;-63
2023/01/27 05:14:47;;;;;;;11.27;6.28;;;;;;;4.61;100.00;98987.13;4991523;28;20052;-62
2023/01/27 05:17:12;;;;;;;10.25;6.15;;;;;;;4.65;100.00;98988.50;4993401;28;20053;-62
2023/01/27 05:19:38;;;;;;;11.05;7.15;;;;;;;4.60;100.00;99002.03;4992615;28;20042;-64
2023/01/27 05:22:03;;;;;;;13.50;10.07;;;;;;;4.61;100.00;99010.72;4993280;28;20038;-64
2023/01/27 05:24:29;;;;;;;24.92;17.35;;;;;;;4.71;100.00;99007.13;4994932;28;20038;-63
2023/01/27 05:26:54;;;;;;;25.42;15.40;;;;;;;4.82;100.00;99004.31;4992343;28;20026;-63
2023/01/27 05:29:20;;;;;;;26.00;14.60;;;;;;;4.89;100.00;99004.56;4992652;28;20050;-62
2023/01/27 05:31:45;;;;;;;41.97;18.45;;;;;;;4.95;100.00;99011.03;4993263;28;20034;-64
2023/01/27 05:34:11;;;;;;;42.13;19.92;;;;;;;4.91;100.00;99012.28;4992337;28;20352;-64
2023/01/27 05:36:36;;;;;;;63.17;26.08;;;;;;;4.90;100.00;99011.47;4992226;28;20030;-62
2023/01/27 05:39:01;;;;;;;61.95;24.05;;;;;;;4.82;100.00;99006.09;4993122;28;20100;-62
2023/01/27 05:41:31;;;;;;;32.15;15.30;;;;;;;4.75;100.00;99008.47;4993006;28;20118;-63
2023/01/27 05:43:57;;;;;;;17.77;10.57;;;;;;;4.69;100.00;99003.81;4992237;28;20204;-64
2023/01/27 05:46:25;;;;;;;15.60;10.15;;;;;;;4.75;100.00;99012.91;4992824;28;20038;-63
2023/01/27 05:48:53;;;;;;;18.58;10.80;;;;;;;4.80;100.00;99005.44;4988249;28;20042;-62
2023/01/27 05:51:21;;;;;;;18.52;10.77;;;;;;;4.86;100.00;99009.28;4992210;28;20065;-64
2023/01/27 05:53:46;;;;;;;15.75;9.27;;;;;;;4.86;100.00;99017.97;4992635;28;20050;-64
2023/01/27 05:56:14;;;;;;;14.90;7.88;;;;;;;4.77;100.00;99014.41;4991676;28;20390;-62
2023/01/27 05:58:40;;;;;;;12.73;7.15;;;;;;;4.76;100.00;99010.13;4992925;28;20103;-63
2023/01/27 06:01:12;;;;;;;15.75;8.07;;;;;;;4.74;100.00;99008.63;4981285;28;20057;-63
2023/01/27 06:03:39;;;;;;;11.73;6.88;;;;;;;4.77;100.00;99005.72;4979203;28;20051;-63
2023/01/27 06:06:06;;;;;;;14.10;7.93;;;;;;;4.71;100.00;99001.03;4979786;28;20039;-65
2023/01/27 06:08:33;;;;;;;10.02;6.43;;;;;;;4.63;100.00;98993.06;4983888;28;20097;-62
2023/01/27 06:10:59;;;;;;;14.93;7.65;;;;;;;4.65;100.00;98994.56;4980338;28;20049;-63
2023/01/27 06:13:25;;;;;;;10.80;6.93;;;;;;;4.63;100.00;98982.56;4979700;28;20047;-63
2023/01/27 06:15:50;;;;;;;12.35;6.93;;;;;;;4.57;100.00;98970.03;4979652;28;20332;-64
2023/01/27 06:18:17;;;;;;;14.60;8.52;;;;;;;4.53;100.00;98979.16;4982733;28;20347;-62
2023/01/27 06:20:43;;;;;;;14.55;8.25;;;;;;;4.45;100.00;98985.94;4983151;28;20291;-63
2023/01/27 06:23:10;;;;;;;14.77;9.75;;;;;;;4.45;100.00;98996.41;4983708;28;20038;-63
2023/01/27 06:25:41;;;;;;;16.52;11.50;;;;;;;4.39;100.00;98998.78;4983212;28;20031;-64
2023/01/27 06:28:07;;;;;;;21.02;11.48;;;;;;;4.52;100.00;99001.91;4983258;28;20102;-62
2023/01/27 06:30:34;;;;;;;18.58;11.25;;;;;;;4.64;100.00;99007.81;4983982;28;20050;-62
2023/01/27 06:33:00;;;;;;;24.15;13.63;;;;;;;4.72;100.00;99016.63;4983254;28;20038;-62
2023/01/27 06:35:26;;;;;;;38.97;22.20;;;;;;;4.87;100.00;99016.16;4983135;28;20050;-62
2023/01/27 06:37:51;;;;;;;39.38;22.00;;;;;;;4.99;100.00;99020.28;4982944;28;20288;-64
2023/01/27 06:40:17;;;;;;;47.80;22.90;;;;;;;5.14;100.00;99018.81;4983383;28;20218;-64
2023/01/27 06:42:43;;;;;;;47.55;23.15;;;;;;;5.21;100.00;99006.81;4982624;28;20038;-62
2023/01/27 06:45:11;;;;;;;45.42;22.20;;;;;;;5.35;100.00;99016.81;4983681;28;20039;-62
2023/01/27 06:47:38;;;;;;;30.88;17.35;;;;;;;5.45;99.59;99004.44;4982898;28;20035;-64
2023/01/27 06:50:04;;;;;;;23.58;14.27;;;;;;;5.55;99.71;99004.38;4983207;28;20221;-64
2023/01/27 06:52:29;;;;;;;16.83;9.68;;;;;;;5.60;98.19;99010.03;4981786;28;20109;-62
2023/01/27 06:54:54;;;;;;;15.80;9.15;;;;;;;5.56;98.91;98999.97;4980542;28;20043;-63
2023/01/27 06:57:20;;;;;;;17.02;11.20;;;;;;;5.57;99.17;98994.56;4982534;28;20038;-64
2023/01/27 06:59:45;;;;;;;25.80;15.05;;;;;;;5.58;98.98;99005.91;4981928;28;20084;-64
2023/01/27 07:02:12;;;;;;;28.90;16.52;;;;;;;5.48;99.20;99005.13;4983188;28;20047;-63
2023/01/27 07:04:37;;;;;;;24.25;15.30;;;;;;;5.38;99.68;99008.63;4983025;28;20034;-62
2023/01/27 07:07:03;;;;;;;22.15;15.30;;;;;;;5.42;100.00;99002.13;4983145;28;20030;-64
2023/01/27 07:09:28;;;;;;;29.73;16.42;;;;;;;5.52;99.68;99006.50;4982467;28;20042;-64
2023/01/27 07:11:53;;;;;;;32.17;16.02;;;;;;;5.40;99.95;99009.31;4982887;28;20038;-64
2023/01/27 07:14:19;;;;;;;37.92;20.60;;;;;;;5.40;100.00;99004.06;4982086;28;20334;-62
2023/01/27 07:16:45;;;;;;;32.00;19.20;;;;;;;5.53;100.00;99001.09;4982065;28;20030;-63
2023/01/27 07:19:11;;;;;;;26.17;14.88;;;;;;;5.57;100.00;99002.44;4982243;28;20094;-64
2023/01/27 07:21:37;;;;;;;34.50;17.58;;;;;;;5.50;99.79;99005.81;4981557;28;20348;-64
2023/01/27 07:24:03;;;;;;;33.42;18.35;;;;;;;5.45;100.00;99004.44;4982811;28;20735;-62
2023/01/27 07:26:28;;;;;;;32.55;17.65;;;;;;;5.52;100.00;99007.31;4983050;28;20053;-63
2023/01/27 07:28:55;;;;;;;27.73;17.20;;;;;;;5.61;100.00;99008.22;4981637;28;20378;-64
2023/01/27 07:31:21;;;;;;;29.85;17.67;;;;;;;5.68;100.00;99010.09;4982188;28;20090;-65
2023/01/27 07:33:46;;;;;;;24.88;15.50;;;;;;;5.75;100.00;99010.34;4982134;28;20328;-63
2023/01/27 07:36:12;;;;;;;29.25;15.63;;;;;;;5.73;99.49;99010.50;4982809;28;20023;-62
2023/01/27 07:38:37;;;;;;;32.13;17.55;;;;;;;5.70;99.96;99016.03;4982535;28;20394;-64
2023/01/27 07:41:06;;;;;;;33.95;17.92;;;;;;;5.67;99.88;99012.88;4982594;28;20026;-64
2023/01/27 07:43:32;;;;;;;26.48;16.38;;;;;;;5.65;99.56;99001.69;4985118;28;20050;-62
2023/01/27 07:45:58;;;;;;;25.45;15.90;;;;;;;5.63;100.00;99006.28;4980913;28;20035;-62
2023/01/27 07:48:24;;;;;;;25.20;15.63;;;;;;;5.64;99.88;99000.06;4981241;28;20057;-63
2023/01/27 07:50:49;;;;;;;23.67;14.77;;;;;;;5.62;100.00;99012.50;4979955;28;20046;-64
2023/01/27 07:53:15;;;;;;;21.80;14.43;;;;;;;5.62;100.00;99007.25;4978608;28;20057;-64
2023/01/27 07:55:41;;;;;;;22.52;13.95;;;;;;;5.56;100.00;99002.59;4980067;28;20232;-62
2023/01/27 07:58:06;;;;;;;21.38;14.25;;;;;;;5.49;100.00;98991.84;4981809;28;20296;-63
2023/01/27 08:00:32;;;;;;;18.70;13.23;;;;;;;5.50;100.00;98985.63;4981497;28;20039;-64
2023/01/27 08:02:59;;;;;;;19.95;12.65;;;;;;;5.54;100.00;98984.34;4980653;28;20053;-64
2023/01/27 08:05:25;;;;;;;17.95;11.20;;;;;;;5.60;100.00;98985.56;4982115;28;20039;-61
2023/01/27 08:07:52;;;;;;;15.80;11.15;;;;;;;5.68;100.00;98977.75;4980607;28;20041;-62
2023/01/27 08:10:18;;;;;;;14.90;9.88;;;;;;;5.73;100.00;98978.13;4979281;28;20045;-63
2023/01/27 08:12:44;;;;;;;16.23;10.15;;;;;;;5.69;100.00;98977.63;4981466;28;20030;-61
2023/01/27 08:15:10;;;;;;;14.32;10.25;;;;;;;5.61;100.00;98981.97;4981272;28;20047;-61
2023/01/27 08:17:36;;;;;;;19.20;12.00;;;;;;;5.60;100.00;98983.75;4980923;28;20050;-61
2023/01/27 08:20:01;;;;;;;20.58;14.48;;;;;;;5.65;100.00;98983.31;4980703;28;20039;-63
2023/01/27 08:22:27;;;;;;;21.98;14.70;;;;;;;5.62;100.00;98979.19;4995984;28;20046;-64
2023/01/27 08:24:53;;;;;;;21.95;14.48;;;;;;;5.67;100.00;98986.63;4998701;28;20279;-64
2023/01/27 08:27:18;;;;;;;22.80;14.95;;;;;;;5.63;100.00;98983.47;4999152;28;20030;-61
2023/01/27 08:29:44;;;;;;;24.27;14.98;;;;;;;5.59;100.00;98987.38;4999498;28;20057;-62
2023/01/27 08:32:10;;;;;;;27.15;16.30;;;;;;;5.53;100.00;98977.47;4999397;28;20046;-64
2023/01/27 08:34:36;;;;;;;23.80;15.70;;;;;;;5.54;100.00;98975.66;4999885;28;20045;-64
2023/01/27 08:37:02;;;;;;;18.40;11.68;;;;;;;5.47;100.00;98962.28;4999181;28;20123;-62
2023/01/27 08:39:28;;;;;;;24.40;13.63;;;;;;;5.50;100.00;98958.53;4997356;28;20038;-64
2023/01/27 08:41:53;;;;;;;25.10;14.50;;;;;;;5.56;100.00;98956.16;4998707;28;20354;-64
2023/01/27 08:44:19;;;;;;;22.45;13.07;;;;;;;5.68;100.00;98951.50;4998570;28;20041;-64
2023/01/27 08:46:45;;;;;;;23.92;12.90;;;;;;;5.59;100.00;98953.22;4997290;28;20108;-62
2023/01/27 08:49:12;;;;;;;23.10;13.30;;;;;;;5.72;100.00;98948.41;4996362;28;20042;-62
2023/01/27 08:51:39;;;;;;;21.15;12.27;;;;;;;5.74;100.00;98938.59;4997040;28;20034;-64
2023/01/27 08:54:05;;;;;;;23.98;12.07;;;;;;;5.76;100.00;98926.13;4999433;28;20038;-63
2023/01/27 08:56:31;;;;;;;19.10;11.27;;;;;;;5.91;100.00;98944.00;4997251;28;20038;-63
2023/01/27 08:58:56;;;;;;;16.90;10.90;;;;;;;5.91;100.00;98951.91;4992430;28;20136;-63
2023/01/27 09:01:22;;;;;;;19.63;11.52;;;;;;;5.91;100.00;98951.91;4993453;28;20049;-64
2023/01/27 09:03:47;;;;;;;21.48;12.95;;;;;;;5.87;100.00;98956.59;4997589;28;21149;-62
2023/01/27 09:06:14;;;;;;;24.90;14.20;;;;;;;5.82;100.00;98964.09;4996888;28;20128;-62
2023/01/27 09:08:40;;;;;;;23.30;14.57;;;;;;;5.73;100.00;98967.63;4995434;28;20228;-62
2023/01/27 09:11:10;;;;;;;26.65;15.40;;;;;;;5.65;100.00;98972.81;4993884;28;20064;-63
2023/01/27 09:13:36;;;;;;;26.48;15.20;;;;;;;5.66;100.00;98971.84;4994750;28;20332;-64
2023/01/27 09:16:02;;;;;;;30.15;18.27;;;;;;;5.66;100.00;98970.03;4996314;28;20091;-64
2023/01/27 09:18:27;;;;;;;30.35;18.02;;;;;;;5.73;100.00;98959.75;4995396;28;20474;-62
2023/01/27 09:20:53;;;;;;;19.30;12.20;;;;;;;5.70;100.00;98962.69;4995659;28;20340;-61
2023/01/27 09:23:18;;;;;;;20.23;12.32;;;;;;;5.64;100.00;98955.41;4995770;28;20042;-64
2023/01/27 09:25:44;;;;;;;19.00;12.43;;;;;;;5.62;100.00;98952.09;4995699;28;20061;-64
2023/01/27 09:28:15;;;;;;;22.38;14.82;;;;;;;5.58;100.00;98946.31;4995638;28;20065;-62
2023/01/27 09:30:43;;;;;;;28.35;16.15;;;;;;;5.61;100.00;98939.94;4996102;28;20026;-62
2023/01/27 09:33:09;;;;;;;27.63;16.00;;;;;;;5.58;100.00;98941.06;4995075;28;20038;-62
2023/01/27 09:35:44;;;;;;;21.42;13.93;;;;;;;5.65;100.00;98930.78;4995384;28;20374;-62
2023/01/27 09:38:12;;;;;;;21.58;13.57;;;;;;;5.67;100.00;98934.91;4996705;28;20077;-61
2023/01/27 09:41:06;;;;;;;19.80;13.70;;;;;;;5.68;100.00;98925.22;4996587;28;20030;-62
2023/01/27 09:44:01;;;;;;;22.75;13.43;;;;;;;5.59;100.00;98913.84;4996019;28;20042;-63
2023/01/27 09:46:48;;;;;;;22.38;12.20;;;;;;;5.64;100.00;98918.63;4990394;28;20038;-64
2023/01/27 09:49:26;;;;;;;17.35;9.85;;;;;;;5.44;100.00;98889.06;4996753;28;20053;-62
2023/01/27 09:52:25;;;;;;;16.63;9.55;;;;;;;5.42;100.00;98893.66;4996841;28;20034;-62
2023/01/27 09:55:01;;;;;;;21.33;10.70;;;;;;;5.53;100.00;98895.22;5000569;28;20046;-64
2023/01/27 09:57:54;;;;;;;21.45;11.63;;;;;;;5.63;100.00;98899.44;5000768;28;20281;-62
2023/01/27 10:00:22;;;;;;;16.77;10.60;;;;;;;5.70;100.00;98904.91;5001067;28;20112;-62
2023/01/27 10:03:13;;;;;;;19.10;12.02;;;;;;;5.72;100.00;98911.66;5000218;28;20244;-64
2023/01/27 10:05:41;;;;;;;20.80;13.05;;;;;;;5.69;100.00;98909.31;5000759;28;20046;-64
2023/01/27 10:08:21;;;;;;;23.85;14.57;;;;;;;5.72;100.00;98909.03;5001010;28;20054;-62
2023/01/27 10:10:58;;;;;;;28.73;17.48;;;;;;;5.61;100.00;98911.06;4999751;28;20919;-61
2023/01/27 10:13:40;;;;;;;24.02;14.73;;;;;;;5.67;100.00;98913.06;5001160;28;20073;-62
2023/01/27 10:16:28;;;;;;;23.35;13.73;;;;;;;5.69;100.00;98895.38;5001201;28;20058;-64
2023/01/27 10:18:54;;;;;;;23.92;13.00;;;;;;;5.61;100.00;98883.00;4999920;28;20050;-62
2023/01/27 10:21:25;;;;;;;24.13;14.82;;;;;;;5.72;100.00;98879.31;5000059;28;20046;-63
2023/01/27 10:23:57;;;;;;;26.08;15.40;;;;;;;5.74;100.00;98875.53;4999325;28;20339;-64
2023/01/27 10:26:37;;;;;;;25.52;15.68;;;;;;;5.81;100.00;98870.50;5000122;28;20046;-63
2023/01/27 10:29:24;;;;;;;27.95;15.75;;;;;;;5.72;100.00;98868.78;5000070;28;20080;-62
2023/01/27 10:31:56;;;;;;;27.80;16.50;;;;;;;5.73;100.00;98867.81;5000402;28;20038;-63
2023/01/27 10:34:45;;;;;;;29.90;17.95;;;;;;;5.62;100.00;98861.00;5000609;28;20066;-62
2023/01/27 10:37:27;;;;;;;24.08;14.93;;;;;;;5.63;100.00;98857.41;5012662;28;20045;-64
2023/01/27 10:40:19;;;;;;;21.48;12.43;;;;;;;5.68;100.00;98852.50;4999440;28;20030;-62
2023/01/27 10:43:09;;;;;;;20.27;11.13;;;;;;;5.66;100.00;98853.66;5000483;28;20043;-62
2023/01/27 10:45:59;;;;;;;20.42;12.00;;;;;;;5.68;100.00;98854.31;5000492;28;20117;-63
2023/01/27 10:48:46;;;;;;;20.70;11.73;;;;;;;5.65;100.00;98847.56;4999770;28;20049;-65
2023/01/27 10:51:27;;;;;;;15.48;10.95;;;;;;;5.72;100.00;98843.34;5000491;28;20197;-62
2023/01/27 10:54:02;;;;;;;17.33;10.25;;;;;;;5.69;100.00;98845.47;4999779;28;20034;-62
2023/01/27 10:56:45;;;;;;;17.17;10.10;;;;;;;5.66;100.00;98836.09;5000000;28;20359;-64
2023/01/27 10:59:13;;;;;;;18.60;9.98;;;;;;;5.64;100.00;98832.78;4999411;28;20050;-64
2023/01/27 11:01:46;;;;;;;18.38;10.07;;;;;;;5.66;100.00;98827.38;5000109;28;20030;-62
2023/01/27 11:04:17;;;;;;;19.25;11.23;;;;;;;5.60;100.00;98831.44;4999885;28;20050;-62
2023/01/27 11:06:44;;;;;;;19.77;10.30;;;;;;;5.49;100.00;98829.06;4999947;28;20104;-62
2023/01/27 11:09:17;;;;;;;19.00;10.82;;;;;;;5.51;100.00;98815.78;4999987;28;20046;-63
2023/01/27 11:11:44;;;;;;;19.65;11.00;;;;;;;5.74;100.00;98817.75;4998548;28;20042;-64
2023/01/27 11:14:21;;;;;;;17.65;11.45;;;;;;;5.71;100.00;98825.94;5000005;28;20034;-62
2023/01/27 11:17:18;;;;;;;19.15;11.57;;;;;;;5.78;100.00;98815.66;4999055;28;20101;-63
2023/01/27 11:19:55;;;;;;;20.02;11.25;;;;;;;5.92;100.00;98816.91;4999554;28;20339;-64
2023/01/27 11:22:41;;;;;;;15.98;10.75;;;;;;;5.89;100.00;98814.56;4999541;28;20055;-65
2023/01/27 11:25:36;;;;;;;22.15;11.23;;;;;;;5.91;100.00;98812.63;4998950;28;20042;-62
2023/01/27 11:28:19;;;;;;;16.85;9.90;;;;;;;5.95;100.00;98799.03;4926289;28;20048;-62
2023/01/27 11:31:04;;;;;;;18.00;11.13;;;;;;;6.13;100.00;98798.97;4992890;28;20034;-62
2023/01/27 11:34:07;;;;;;;18.17;10.27;;;;;;;6.28;100.00;98796.59;4992043;28;20045;-62
2023/01/27 11:36:34;;;;;;;15.70;9.52;;;;;;;6.38;100.00;98800.75;4992095;28;20046;-63
2023/01/27 11:39:03;;;;;;;16.85;10.20;;;;;;;6.45;100.00;98808.00;4993776;28;20296;-62
2023/01/27 11:41:32;;;;;;;15.32;10.07;;;;;;;6.47;100.00;98803.41;4992601;28;20088;-61
2023/01/27 11:44:03;;;;;;;21.15;11.50;;;;;;;6.50;100.00;98808.34;4994283;28;20358;-61
2023/01/27 11:46:31;;;;;;;21.33;11.15;;;;;;;6.49;100.00;98815.41;4990408;28;20041;-63
2023/01/27 11:48:57;;;;;;;22.38;11.52;;;;;;;6.44;100.00;98812.44;4993896;28;20065;-63
2023/01/27 11:51:31;;;;;;;23.55;14.05;;;;;;;6.48;100.00;98803.25;4991139;28;20049;-61
2023/01/27 11:54:20;;;;;;;19.15;10.43;;;;;;;6.45;100.00;98800.94;4992775;28;20077;-61
2023/01/27 11:56:48;;;;;;;19.30;10.48;;;;;;;6.39;100.00;98806.84;4992588;28;20045;-62
2023/01/27 11:59:23;;;;;;;23.45;12.88;;;;;;;6.43;100.00;98802.91;4992255;28;20295;-64
2023/01/27 12:02:17;;;;;;;19.98;12.02;;;;;;;6.45;100.00;98802.75;4991429;28;20050;-62
2023/01/27 12:05:11;;;;;;;18.73;10.35;;;;;;;6.48;100.00;98805.06;4961628;28;20058;-62
2023/01/27 12:07:54;;;;;;;14.20;9.10;;;;;;;6.51;100.00;98802.94;4990779;28;20125;-62